Time;durP1;ratioP1;P1;durP2;ratioP2;P2;SDS_P1;SDS_P2;PMS_P1;PMS_P2;Temp;Humidity;BMP_temperature;BMP_pressure;BME280_temperature;BME280_humidity;BME280_pressure;Samples;Min_cycle;Max_cycle;Signal;HPM_P1;HPM_P2
2022/06/01 00:02:01;;;;;;;1.97;1.47;;;22.70;99.90;;;;;;6234789;23;20235;-92
2022/06/01 00:04:34;;;;;;;2.90;1.90;;;22.80;99.90;;;;;;6234708;23;20440;-92
2022/06/01 00:07:07;;;;;;;2.93;1.57;;;22.80;99.90;;;;;;6234485;23;20276;-92
2022/06/01 00:09:41;;;;;;;2.53;1.70;;;22.60;99.90;;;;;;6233715;23;20176;-91
2022/06/01 00:12:16;;;;;;;2.40;1.60;;;22.70;99.90;;;;;;6218361;23;20212;-91
2022/06/01 00:14:49;;;;;;;2.50;1.90;;;22.60;99.90;;;;;;6268237;22;20178;-93
2022/06/01 00:17:21;;;;;;;3.83;1.67;;;22.70;99.90;;;;;;6267669;22;20180;-93
2022/06/01 00:19:53;;;;;;;2.17;1.80;;;22.80;99.90;;;;;;6266229;22;20175;-92
2022/06/01 00:22:26;;;;;;;2.43;1.67;;;22.90;99.90;;;;;;6267234;22;20164;-93
2022/06/01 00:24:57;;;;;;;1.83;1.50;;;23.00;99.90;;;;;;6265951;22;20689;-93
2022/06/01 00:27:32;;;;;;;2.67;1.97;;;23.10;99.90;;;;;;6267401;22;20247;-92
2022/06/01 00:30:05;;;;;;;2.43;2.10;;;22.90;99.90;;;;;;6268148;22;20166;-91
2022/06/01 00:32:37;;;;;;;3.47;1.63;;;23.00;99.90;;;;;;6269550;22;20262;-93
2022/06/01 00:35:11;;;;;;;3.00;1.50;;;23.00;99.90;;;;;;6270095;22;20167;-92
2022/06/01 00:37:43;;;;;;;2.07;1.87;;;23.00;99.90;;;;;;6266330;23;20202;-93
2022/06/01 00:40:18;;;;;;;2.63;1.67;;;22.90;99.90;;;;;;6264808;22;20210;-92
2022/06/01 00:42:54;;;;;;;4.03;1.83;;;22.90;99.90;;;;;;6264132;22;20215;-91
2022/06/01 00:45:28;;;;;;;2.80;1.73;;;22.90;99.90;;;;;;6267960;22;20202;-91
2022/06/01 00:48:01;;;;;;;1.77;1.60;;;23.00;99.90;;;;;;6263519;23;20164;-90
2022/06/01 00:50:36;;;;;;;4.23;2.40;;;23.10;99.90;;;;;;6262975;22;20174;-91
2022/06/01 00:53:20;;;;;;;2.17;1.80;;;23.50;99.90;;;;;;6259474;22;20282;-91
2022/06/01 00:55:55;;;;;;;1.93;1.40;;;23.70;99.90;;;;;;6259629;22;20176;-91
2022/06/01 00:58:39;;;;;;;2.37;1.63;;;24.20;99.90;;;;;;6264280;23;20186;-92
2022/06/01 01:01:15;;;;;;;5.20;1.90;;;24.70;99.90;;;;;;6262001;22;20175;-91
2022/06/01 01:03:51;;;;;;;2.87;1.70;;;25.00;99.90;;;;;;6266231;22;20227;-92
2022/06/01 01:06:26;;;;;;;2.23;1.53;;;24.80;99.90;;;;;;6268729;22;20183;-92
2022/06/01 01:08:59;;;;;;;3.60;1.50;;;25.00;99.90;;;;;;6262361;23;20178;-91
2022/06/01 01:11:35;;;;;;;1.77;1.20;;;25.50;99.90;;;;;;6254047;22;20176;-94
2022/06/01 01:14:10;;;;;;;1.33;1.20;;;25.40;99.90;;;;;;6261623;23;20183;-93
2022/06/01 01:16:44;;;;;;;1.27;0.93;;;25.60;99.90;;;;;;6264394;22;20162;-91
2022/06/01 01:19:21;;;;;;;1.73;1.20;;;25.60;99.90;;;;;;6261287;23;20237;-92
2022/06/01 01:22:08;;;;;;;3.63;1.73;;;25.50;99.90;;;;;;6265265;23;20175;-96
2022/06/01 01:24:53;;;;;;;3.57;1.37;;;25.70;99.90;;;;;;6265841;23;20231;-93
2022/06/01 01:27:27;;;;;;;6.50;1.53;;;26.00;99.90;;;;;;6265694;22;20175;-93
2022/06/01 01:29:59;;;;;;;2.23;1.20;;;26.00;99.90;;;;;;6260629;23;20186;-93
2022/06/01 01:32:31;;;;;;;1.17;1.07;;;26.30;99.90;;;;;;6268081;22;20211;-93
2022/06/01 01:40:27;;;;;;;2.80;1.53;;;25.70;99.90;;;;;;6272599;22;20225;-94
2022/06/01 01:43:03;;;;;;;4.67;1.83;;;25.80;99.90;;;;;;6271411;22;20196;-94
2022/06/01 01:45:37;;;;;;;2.63;1.83;;;25.60;99.90;;;;;;6179902;22;20281;-92
2022/06/01 01:48:10;;;;;;;3.00;1.50;;;25.70;99.90;;;;;;6259711;22;20225;-93
2022/06/01 01:50:42;;;;;;;1.70;1.60;;;25.50;99.90;;;;;;6257876;23;20180;-93
2022/06/01 01:53:14;;;;;;;4.00;1.83;;;25.60;99.90;;;;;;6257532;23;20198;-93
2022/06/01 01:56:00;;;;;;;3.53;1.60;;;25.80;99.90;;;;;;6255336;23;20171;-93
2022/06/01 01:58:43;;;;;;;3.73;1.70;;;25.80;99.90;;;;;;6260926;23;20179;-92
2022/06/01 02:01:21;;;;;;;2.13;1.73;;;25.40;99.90;;;;;;6255008;23;20168;-92
2022/06/01 02:03:59;;;;;;;3.03;1.80;;;24.90;99.90;;;;;;6255883;23;20179;-92
2022/06/01 02:06:35;;;;;;;1.93;1.67;;;24.50;99.90;;;;;;6254322;23;20175;-93
2022/06/01 02:09:09;;;;;;;2.27;2.07;;;25.10;99.90;;;;;;6263269;23;20175;-92
2022/06/01 02:14:40;;;;;;;3.37;2.03;;;25.40;99.90;;;;;;6257363;23;20176;-92
2022/06/01 02:17:16;;;;;;;2.20;1.90;;;25.60;99.90;;;;;;6252631;23;20175;-92
2022/06/01 02:19:52;;;;;;;3.47;2.00;;;25.60;99.90;;;;;;6253574;23;20175;-92
2022/06/01 02:22:25;;;;;;;3.03;2.00;;;24.90;99.90;;;;;;6258573;23;20172;-93
2022/06/01 02:24:56;;;;;;;3.27;2.20;;;23.90;99.90;;;;;;6258196;23;20168;-92
2022/06/01 02:27:29;;;;;;;2.63;2.00;;;23.40;99.90;;;;;;6251247;22;20256;-93
2022/06/01 02:30:10;;;;;;;3.60;2.13;;;23.00;99.90;;;;;;6255703;22;20186;-93
2022/06/01 02:32:43;;;;;;;6.80;2.30;;;22.60;99.90;;;;;;6270785;22;20247;-93
2022/06/01 02:35:18;;;;;;;3.10;2.57;;;22.20;99.90;;;;;;6270698;22;20202;-91
2022/06/01 02:37:54;;;;;;;3.43;2.50;;;21.90;99.90;;;;;;6266681;22;20174;-93
2022/06/01 02:40:28;;;;;;;3.67;2.30;;;21.60;99.90;;;;;;6268236;22;20174;-93
2022/06/01 02:43:01;;;;;;;3.27;2.50;;;21.30;99.90;;;;;;6268142;22;20251;-96
2022/06/01 02:45:36;;;;;;;11.00;2.83;;;21.10;99.90;;;;;;6263684;22;20186;-96
2022/06/01 02:48:10;;;;;;;2.73;2.27;;;20.90;99.90;;;;;;6269649;22;20177;-95
2022/06/01 02:50:45;;;;;;;5.40;2.67;;;20.80;99.90;;;;;;6271112;22;20167;-96
2022/06/01 02:53:18;;;;;;;6.53;2.80;;;20.70;99.90;;;;;;6268168;22;20218;-96
2022/06/01 02:55:51;;;;;;;4.33;2.60;;;20.40;99.90;;;;;;6268632;23;20168;-94
2022/06/01 03:06:31;;;;;;;4.60;2.60;;;19.90;99.90;;;;;;6300358;22;20206;-93
2022/06/01 03:09:23;;;;;;;4.67;2.83;;;19.80;99.90;;;;;;6296120;22;20185;-93
2022/06/01 03:14:52;;;;;;;4.67;2.53;;;19.40;99.90;;;;;;6119151;23;20223;-91
2022/06/01 03:17:25;;;;;;;4.40;2.50;;;19.20;99.90;;;;;;6116005;23;20172;-92
2022/06/01 03:19:58;;;;;;;4.50;2.70;;;19.10;99.90;;;;;;6116281;23;20230;-92
2022/06/01 03:22:31;;;;;;;4.10;2.33;;;19.00;99.90;;;;;;6113579;23;20189;-93
2022/06/01 03:25:03;;;;;;;3.57;2.40;;;18.90;99.90;;;;;;6118913;23;20262;-91
2022/06/01 03:27:36;;;;;;;2.77;2.40;;;18.80;99.90;;;;;;6101416;23;20273;-91
2022/06/01 03:30:10;;;;;;;3.50;2.43;;;18.70;99.90;;;;;;6107535;23;20175;-92
2022/06/01 03:32:43;;;;;;;5.13;2.80;;;18.60;99.90;;;;;;6104049;23;20175;-92
2022/06/01 03:35:16;;;;;;;6.83;2.70;;;18.50;99.90;;;;;;6118887;23;20174;-91
2022/06/01 03:40:29;;;;;;;4.40;2.70;;;18.30;99.90;;;;;;6203492;22;20207;-92
2022/06/01 03:43:01;;;;;;;6.70;2.90;;;18.20;99.90;;;;;;6205236;23;20227;-91
2022/06/01 03:48:21;;;;;;;4.87;3.27;;;18.00;99.90;;;;;;6193635;23;20166;-91
2022/06/01 03:53:44;;;;;;;7.40;4.60;;;17.80;99.90;;;;;;6213125;23;20173;-91
2022/06/01 03:56:18;;;;;;;4.43;2.90;;;17.80;99.90;;;;;;6207960;23;20173;-92
2022/06/01 03:58:51;;;;;;;3.43;2.63;;;17.60;99.90;;;;;;6202557;23;20543;-91
2022/06/01 04:01:24;;;;;;;5.23;3.33;;;17.40;99.90;;;;;;6206652;23;20189;-91
2022/06/01 04:03:55;;;;;;;3.93;2.97;;;17.30;99.90;;;;;;6196779;23;20686;-91
2022/06/01 04:06:28;;;;;;;5.17;3.50;;;17.30;99.90;;;;;;6204173;23;20193;-91
2022/06/01 04:09:00;;;;;;;5.37;3.23;;;17.20;99.90;;;;;;6207278;23;20173;-92
2022/06/01 04:11:34;;;;;;;6.63;3.30;;;17.00;99.90;;;;;;6203473;23;20197;-90
2022/06/01 04:14:06;;;;;;;5.57;3.30;;;16.90;99.90;;;;;;6170090;23;20201;-91
2022/06/01 04:16:38;;;;;;;5.97;3.50;;;16.80;99.90;;;;;;6203988;23;20181;-91
2022/06/01 04:19:09;;;;;;;4.23;3.30;;;16.70;99.90;;;;;;6199816;23;20177;-89
2022/06/01 04:21:46;;;;;;;4.97;3.20;;;16.70;99.90;;;;;;6196593;23;20165;-91
2022/06/01 04:24:20;;;;;;;3.43;3.13;;;16.60;99.90;;;;;;6191131;23;20203;-91
2022/06/01 04:26:54;;;;;;;4.20;3.80;;;16.60;99.90;;;;;;6197600;23;20433;-91
2022/06/01 04:29:26;;;;;;;3.60;3.30;;;16.50;99.90;;;;;;6196043;23;20177;-91
2022/06/01 04:32:03;;;;;;;5.70;3.43;;;16.50;99.90;;;;;;6189845;23;20181;-91
2022/06/01 04:34:35;;;;;;;5.00;3.50;;;16.50;99.90;;;;;;6196867;23;20208;-91
2022/06/01 04:37:07;;;;;;;4.67;3.70;;;16.50;99.90;;;;;;6197494;23;20176;-91
2022/06/01 04:39:39;;;;;;;5.27;3.73;;;16.50;99.90;;;;;;6192021;23;20196;-92
2022/06/01 04:42:12;;;;;;;4.23;3.30;;;16.50;99.90;;;;;;6193150;23;20177;-91
2022/06/01 04:44:44;;;;;;;4.37;3.60;;;16.50;99.90;;;;;;6193419;23;20185;-96
2022/06/01 04:47:15;;;;;;;4.53;3.53;;;16.40;99.90;;;;;;6197621;23;20183;-95
2022/06/01 04:49:51;;;;;;;4.43;3.20;;;16.30;99.90;;;;;;6195815;23;20196;-94
2022/06/01 04:52:23;;;;;;;3.73;3.30;;;16.20;99.90;;;;;;6190249;23;20182;-95
2022/06/01 04:54:55;;;;;;;5.53;3.50;;;16.10;99.90;;;;;;6210479;23;20197;-94
2022/06/01 04:57:31;;;;;;;5.47;3.43;;;16.10;99.90;;;;;;6207518;23;20220;-94
2022/06/01 05:00:03;;;;;;;5.07;2.80;;;16.00;99.90;;;;;;6211547;23;20267;-95
2022/06/01 05:02:36;;;;;;;8.23;3.10;;;16.00;99.90;;;;;;6211747;23;20181;-94
2022/06/01 05:05:11;;;;;;;3.63;3.07;;;15.90;99.90;;;;;;6212276;23;20186;-95
2022/06/01 05:07:42;;;;;;;3.40;3.03;;;15.80;99.90;;;;;;6212213;23;20211;-95
2022/06/01 05:10:14;;;;;;;4.47;3.03;;;15.90;99.90;;;;;;6210913;23;20181;-95
2022/06/01 05:13:05;;;;;;;3.20;2.60;;;15.80;99.90;;;;;;6226574;23;20238;-94
2022/06/01 05:15:52;;;;;;;4.77;3.17;;;15.60;99.90;;;;;;6241796;23;20211;-94
2022/06/01 05:18:25;;;;;;;4.23;3.40;;;15.40;99.90;;;;;;6234089;23;20195;-94
2022/06/01 05:20:57;;;;;;;5.40;3.30;;;15.40;99.90;;;;;;6226659;23;20176;-94
2022/06/01 05:23:31;;;;;;;4.17;2.90;;;15.30;99.90;;;;;;6233939;23;20195;-93
2022/06/01 05:26:05;;;;;;;4.93;3.43;;;15.30;99.90;;;;;;6230062;23;20158;-94
2022/06/01 05:28:41;;;;;;;4.10;3.20;;;15.20;99.90;;;;;;6235278;23;20160;-94
2022/06/01 05:31:16;;;;;;;5.97;3.23;;;15.20;99.90;;;;;;6235142;23;20166;-93
2022/06/01 05:33:50;;;;;;;4.17;3.30;;;15.10;99.90;;;;;;6229431;23;20195;-94
2022/06/01 05:36:24;;;;;;;3.40;2.90;;;15.10;99.90;;;;;;6228579;23;20195;-94
2022/06/01 05:38:57;;;;;;;4.80;3.53;;;15.10;99.90;;;;;;6227127;23;20230;-93
2022/06/01 05:41:29;;;;;;;4.87;3.43;;;15.10;99.90;;;;;;6224469;23;20169;-92
2022/06/01 05:44:04;;;;;;;6.17;2.90;;;15.10;99.90;;;;;;6233175;23;20231;-92
2022/06/01 05:46:37;;;;;;;4.77;3.33;;;15.00;99.90;;;;;;6235233;23;20175;-92
2022/06/01 05:49:09;;;;;;;4.37;3.57;;;15.00;99.90;;;;;;6234820;23;20236;-92
2022/06/01 05:51:43;;;;;;;4.40;3.60;;;14.90;99.90;;;;;;6233872;23;20181;-92
2022/06/01 05:54:15;;;;;;;4.53;3.50;;;14.90;99.90;;;;;;6228763;23;20288;-92
2022/06/01 05:56:47;;;;;;;5.33;3.20;;;14.90;99.90;;;;;;6232140;23;20184;-93
2022/06/01 05:59:22;;;;;;;5.43;3.43;;;14.90;99.90;;;;;;6238096;23;20176;-93
2022/06/01 06:01:55;;;;;;;5.07;3.10;;;14.80;99.90;;;;;;6236197;23;20183;-92
2022/06/01 06:04:27;;;;;;;7.43;3.70;;;14.80;99.90;;;;;;6236943;23;20164;-92
2022/06/01 06:07:01;;;;;;;4.10;3.30;;;14.80;99.90;;;;;;6231341;23;20172;-93
2022/06/01 06:09:34;;;;;;;3.90;3.17;;;14.80;99.90;;;;;;6224557;22;20290;-95
2022/06/01 06:12:07;;;;;;;5.63;3.50;;;14.80;99.90;;;;;;6261229;23;20191;-92
2022/06/01 06:14:43;;;;;;;5.53;3.70;;;14.80;99.90;;;;;;6259881;22;20527;-92
2022/06/01 06:17:15;;;;;;;3.83;3.43;;;14.70;99.90;;;;;;6269987;22;20215;-92
2022/06/01 06:19:48;;;;;;;4.50;3.50;;;14.70;99.90;;;;;;6269601;23;20167;-93
2022/06/01 06:22:22;;;;;;;4.17;3.40;;;14.80;99.90;;;;;;6268288;22;20191;-93
2022/06/01 06:24:55;;;;;;;4.00;3.10;;;14.80;99.90;;;;;;6269323;23;20250;-92
2022/06/01 06:27:31;;;;;;;4.47;3.37;;;14.80;99.90;;;;;;6268046;23;20180;-91
2022/06/01 06:30:07;;;;;;;3.77;3.30;;;14.70;99.90;;;;;;6268566;22;20193;-93
2022/06/01 06:32:42;;;;;;;3.90;3.50;;;14.70;99.90;;;;;;6267664;22;20176;-92
2022/06/01 06:37:57;;;;;;;4.70;3.40;;;14.60;99.90;;;;;;6263757;22;20207;-92
2022/06/01 06:40:30;;;;;;;3.53;2.60;;;14.50;99.90;;;;;;6268460;22;20229;-93
2022/06/01 06:43:03;;;;;;;5.80;3.20;;;14.50;99.90;;;;;;6256905;22;20199;-93
2022/06/01 06:45:39;;;;;;;5.33;3.20;;;14.50;99.90;;;;;;6252919;22;20516;-91
2022/06/01 06:48:12;;;;;;;4.07;3.33;;;14.40;99.90;;;;;;6252703;22;20235;-91
2022/06/01 06:50:44;;;;;;;6.00;3.03;;;14.40;99.90;;;;;;6249224;22;20512;-93
2022/06/01 06:53:25;;;;;;;5.10;3.03;;;14.30;99.90;;;;;;6253070;22;20175;-92
2022/06/01 06:55:59;;;;;;;6.97;3.30;;;14.30;99.90;;;;;;6254755;22;20274;-93
2022/06/01 06:58:31;;;;;;;3.43;3.13;;;14.30;99.90;;;;;;6260090;23;20182;-93
2022/06/01 07:01:07;;;;;;;3.03;2.73;;;14.30;99.90;;;;;;6253902;22;20240;-93
2022/06/01 07:03:39;;;;;;;3.57;3.20;;;14.30;99.90;;;;;;6252615;23;20198;-93
2022/06/01 07:06:17;;;;;;;3.63;3.10;;;14.20;99.90;;;;;;6254364;22;20214;-93
2022/06/01 07:08:52;;;;;;;6.10;3.07;;;14.20;99.90;;;;;;6253980;22;20202;-93
2022/06/01 07:11:26;;;;;;;4.00;3.07;;;14.20;99.90;;;;;;6252421;22;20272;-93
2022/06/01 07:14:01;;;;;;;4.37;3.07;;;14.20;99.90;;;;;;6253935;22;20168;-93
2022/06/01 07:16:49;;;;;;;4.17;2.77;;;14.20;99.90;;;;;;6253544;23;20587;-91
2022/06/01 07:19:27;;;;;;;5.63;3.07;;;14.20;99.90;;;;;;6253263;23;20183;-93
2022/06/01 07:22:09;;;;;;;4.80;2.73;;;14.20;99.90;;;;;;6253980;22;20172;-92
2022/06/01 07:24:42;;;;;;;3.17;2.50;;;14.10;99.90;;;;;;6253948;22;20171;-93
2022/06/01 07:27:14;;;;;;;4.13;2.60;;;14.20;99.90;;;;;;6253888;22;20218;-93
2022/06/01 07:29:50;;;;;;;3.30;2.50;;;14.10;99.90;;;;;;6252981;22;20175;-93
2022/06/01 07:32:27;;;;;;;2.43;2.20;;;14.10;99.90;;;;;;6252293;23;20210;-93
2022/06/01 07:35:02;;;;;;;4.83;2.93;;;14.00;99.90;;;;;;6252991;22;20221;-93
2022/06/01 07:43:12;;;;;;;3.57;2.60;;;13.80;99.90;;;;;;6253283;22;20182;-93
2022/06/01 07:45:47;;;;;;;5.43;2.70;;;13.80;99.90;;;;;;6253171;22;20202;-92
2022/06/01 07:48:22;;;;;;;4.63;3.03;;;13.70;99.90;;;;;;6256253;22;20246;-93
2022/06/01 07:51:15;;;;;;;5.27;2.97;;;13.70;99.90;;;;;;6251244;23;20186;-93
2022/06/01 07:53:47;;;;;;;5.30;2.90;;;13.70;99.90;;;;;;6252556;22;20571;-93
2022/06/01 07:56:20;;;;;;;4.63;2.67;;;13.70;99.90;;;;;;6252489;22;20195;-93
2022/06/01 07:58:52;;;;;;;2.87;2.57;;;13.70;99.90;;;;;;6252069;23;20264;-93
2022/06/01 08:01:27;;;;;;;4.03;2.93;;;13.70;99.90;;;;;;6253190;22;20656;-92
2022/06/01 08:04:04;;;;;;;5.93;2.73;;;13.70;99.90;;;;;;6229567;23;20210;-93
2022/06/01 08:06:38;;;;;;;4.17;2.80;;;13.70;99.90;;;;;;6252926;22;20178;-93
2022/06/01 08:09:26;;;;;;;3.60;2.87;;;13.60;99.90;;;;;;6253693;23;20518;-93
2022/06/01 08:14:47;;;;;;;2.90;2.63;;;13.60;99.90;;;;;;6265874;23;20160;-93
2022/06/01 08:17:19;;;;;;;3.03;2.70;;;13.60;99.90;;;;;;6269746;23;20327;-93
2022/06/01 08:19:54;;;;;;;5.17;2.70;;;13.60;99.90;;;;;;6269856;22;20560;-92
2022/06/01 08:22:26;;;;;;;4.97;2.80;;;13.50;99.90;;;;;;6254063;22;20167;-92
2022/06/01 08:24:58;;;;;;;6.40;3.10;;;13.50;99.90;;;;;;6253665;22;20167;-93
2022/06/01 08:27:30;;;;;;;3.57;2.53;;;13.40;99.90;;;;;;6252405;22;20194;-93
2022/06/01 08:30:03;;;;;;;3.17;2.70;;;13.40;99.90;;;;;;6257079;23;20241;-93
2022/06/01 08:32:35;;;;;;;3.00;2.70;;;13.40;99.90;;;;;;6261693;23;20505;-93
2022/06/01 08:35:13;;;;;;;3.93;2.97;;;13.40;99.90;;;;;;6251441;22;20182;-93
2022/06/01 08:37:45;;;;;;;5.07;3.13;;;13.40;99.90;;;;;;6255521;22;20211;-94
2022/06/01 08:40:20;;;;;;;3.03;2.73;;;13.30;99.90;;;;;;6251526;23;20202;-93
2022/06/01 08:42:57;;;;;;;5.00;3.17;;;13.30;99.90;;;;;;6252615;23;20639;-93
2022/06/01 08:45:30;;;;;;;4.03;2.67;;;13.30;99.90;;;;;;6252415;23;20175;-93
2022/06/01 08:48:08;;;;;;;4.83;2.30;;;13.20;99.90;;;;;;6252278;22;20178;-93
2022/06/01 08:50:43;;;;;;;3.37;3.07;;;13.20;99.90;;;;;;6251732;23;20206;-92
2022/06/01 08:53:16;;;;;;;3.57;2.80;;;13.20;99.90;;;;;;6252358;23;20190;-93
2022/06/01 08:55:53;;;;;;;5.70;3.20;;;13.10;99.90;;;;;;6252780;23;20207;-92
2022/06/01 08:58:33;;;;;;;3.00;2.70;;;13.10;99.90;;;;;;6250618;23;20163;-93
2022/06/01 09:01:13;;;;;;;4.60;2.97;;;13.00;99.90;;;;;;6250161;23;20175;-93
2022/06/01 09:03:52;;;;;;;3.80;2.93;;;12.90;99.90;;;;;;6252001;23;20191;-93
2022/06/01 09:06:35;;;;;;;5.83;3.10;;;12.90;99.90;;;;;;6252483;23;20207;-93
2022/06/01 09:09:11;;;;;;;3.73;3.20;;;12.90;99.90;;;;;;6251523;23;20168;-93
2022/06/01 09:11:48;;;;;;;4.73;3.30;;;12.90;99.90;;;;;;6251590;23;20190;-92
2022/06/01 09:14:26;;;;;;;4.10;2.93;;;12.90;99.90;;;;;;6252342;23;20238;-92
2022/06/01 09:16:59;;;;;;;4.53;3.40;;;12.90;99.90;;;;;;6250752;23;20665;-93
2022/06/01 09:22:37;;;;;;;3.80;3.40;;;12.90;99.90;;;;;;6250878;23;20183;-92
2022/06/01 09:22:38;;;;;;;3.97;3.50;;;12.90;99.90;;;;;;6254082;23;20258;-92
2022/06/01 09:25:15;;;;;;;4.70;3.97;;;12.80;99.90;;;;;;6253045;23;20172;-94
2022/06/01 09:27:50;;;;;;;4.13;3.60;;;12.80;99.90;;;;;;6232870;23;20198;-91
2022/06/01 09:30:27;;;;;;;5.07;3.93;;;12.70;99.90;;;;;;6227333;23;20262;-93
2022/06/01 09:33:05;;;;;;;4.60;3.50;;;12.70;99.90;;;;;;6253358;23;20554;-93
2022/06/01 09:35:43;;;;;;;3.53;3.27;;;12.70;99.90;;;;;;6252571;23;20216;-92
2022/06/01 09:38:38;;;;;;;5.07;3.63;;;12.70;99.90;;;;;;6229609;23;20226;-93
2022/06/01 09:41:12;;;;;;;4.93;3.53;;;12.70;99.90;;;;;;6251494;23;20171;-93
2022/06/01 09:43:51;;;;;;;4.13;3.33;;;12.70;99.90;;;;;;6253732;23;20176;-93
2022/06/01 09:46:33;;;;;;;5.30;3.50;;;12.70;99.90;;;;;;6226144;23;20164;-93
2022/06/01 09:49:11;;;;;;;3.93;3.50;;;12.70;99.90;;;;;;6251303;23;20180;-93
2022/06/01 09:51:45;;;;;;;4.37;3.67;;;12.70;99.90;;;;;;6252123;22;20236;-93
2022/06/01 09:54:30;;;;;;;5.50;3.63;;;12.60;99.90;;;;;;6252882;23;20174;-93
2022/06/01 09:57:19;;;;;;;5.00;3.70;;;12.60;99.90;;;;;;6251350;23;20227;-92
2022/06/01 10:08:30;;;;;;;3.77;3.33;;;12.50;99.90;;;;;;6257286;23;20179;-92
2022/06/01 10:11:12;;;;;;;4.20;3.73;;;12.50;99.90;;;;;;6251051;22;20286;-92
2022/06/01 10:13:54;;;;;;;5.23;3.57;;;12.40;99.90;;;;;;6256306;22;20231;-92
2022/06/01 10:16:35;;;;;;;5.37;3.33;;;12.50;99.90;;;;;;6259055;22;20195;-93
2022/06/01 10:19:11;;;;;;;3.70;3.40;;;12.40;99.90;;;;;;6255299;22;20490;-92
2022/06/01 10:21:54;;;;;;;3.70;3.40;;;12.40;99.90;;;;;;6259212;22;20513;-92
2022/06/01 10:24:32;;;;;;;3.50;3.20;;;12.40;99.90;;;;;;6263314;22;20168;-93
2022/06/01 10:27:09;;;;;;;3.70;3.23;;;12.30;99.90;;;;;;6268963;23;20187;-92
2022/06/01 10:29:47;;;;;;;3.87;3.47;;;12.30;99.90;;;;;;6271146;22;20230;-94
2022/06/01 10:32:29;;;;;;;3.80;3.50;;;12.30;99.90;;;;;;6256004;22;20259;-92
2022/06/01 10:35:12;;;;;;;4.57;3.57;;;12.20;99.90;;;;;;6255268;22;20172;-92
2022/06/01 10:37:57;;;;;;;3.70;3.27;;;12.20;99.90;;;;;;6258408;22;20261;-90
2022/06/01 10:40:37;;;;;;;3.80;3.40;;;12.20;99.90;;;;;;6255971;23;20231;-94
2022/06/01 10:43:23;;;;;;;5.23;3.53;;;12.20;99.90;;;;;;6256379;22;20180;-93
2022/06/01 10:46:02;;;;;;;5.37;3.20;;;12.20;99.90;;;;;;6258961;22;20171;-93
2022/06/01 10:48:42;;;;;;;3.30;3.00;;;12.10;99.90;;;;;;6258522;22;20171;-93
2022/06/01 10:51:17;;;;;;;5.37;3.20;;;12.10;99.90;;;;;;6267135;22;20227;-92
2022/06/01 10:53:58;;;;;;;4.47;3.20;;;12.10;99.90;;;;;;6271288;22;20175;-93
2022/06/01 10:56:31;;;;;;;3.77;3.17;;;12.10;99.90;;;;;;6272547;22;20159;-93
2022/06/01 10:59:09;;;;;;;3.70;3.00;;;12.10;99.90;;;;;;6271870;22;20168;-92
2022/06/01 11:01:53;;;;;;;3.97;2.87;;;12.00;99.90;;;;;;6263811;22;20210;-92
2022/06/01 11:04:51;;;;;;;4.33;3.03;;;12.00;99.90;;;;;;6263816;22;20243;-93
2022/06/01 11:07:44;;;;;;;8.63;3.63;;;12.00;99.90;;;;;;6264915;22;20176;-93
2022/06/01 11:10:24;;;;;;;3.90;2.90;;;11.90;99.90;;;;;;6270247;22;20181;-92
2022/06/01 11:13:12;;;;;;;3.87;3.13;;;11.90;99.90;;;;;;6272836;22;20191;-92
2022/06/01 11:16:06;;;;;;;5.87;3.37;;;11.90;99.90;;;;;;6269646;22;20168;-92
2022/06/01 11:18:51;;;;;;;4.67;3.63;;;11.90;99.90;;;;;;6265704;23;20243;-93
2022/06/01 11:21:32;;;;;;;3.87;3.43;;;11.90;99.90;;;;;;6256878;23;20179;-93
2022/06/01 11:24:38;;;;;;;4.70;3.50;;;11.90;99.90;;;;;;6256113;23;20190;-93
2022/06/01 11:27:26;;;;;;;5.47;3.30;;;11.90;99.90;;;;;;6254544;23;20237;-92
2022/06/01 11:30:11;;;;;;;4.03;3.13;;;11.80;99.90;;;;;;6254659;23;20195;-92
2022/06/01 11:32:53;;;;;;;3.20;2.90;;;11.80;99.90;;;;;;6253251;23;20210;-92
2022/06/01 11:35:35;;;;;;;3.57;3.20;;;11.80;99.90;;;;;;6253910;23;20175;-92
2022/06/01 11:38:14;;;;;;;5.30;3.40;;;11.70;99.90;;;;;;6253683;23;20229;-92
2022/06/01 11:40:52;;;;;;;4.47;3.20;;;11.70;99.90;;;;;;6252390;23;20481;-92
2022/06/01 11:43:29;;;;;;;4.13;3.73;;;11.70;99.90;;;;;;6229331;23;20182;-93
2022/06/01 11:46:06;;;;;;;3.40;3.10;;;11.70;99.90;;;;;;6260082;23;20202;-92
2022/06/01 11:48:48;;;;;;;5.33;3.30;;;11.70;99.90;;;;;;6231430;23;20761;-92
2022/06/01 11:51:22;;;;;;;3.50;3.20;;;11.70;99.90;;;;;;6254605;23;20210;-93
2022/06/01 11:54:04;;;;;;;5.30;3.33;;;11.70;99.90;;;;;;6258398;22;20202;-93
2022/06/01 11:56:44;;;;;;;3.17;2.90;;;11.70;99.90;;;;;;6255084;23;20168;-92
2022/06/01 11:59:24;;;;;;;4.63;3.27;;;11.70;99.90;;;;;;6254166;23;20207;-92
2022/06/01 12:02:07;;;;;;;3.90;2.90;;;11.70;99.90;;;;;;6257459;22;20195;-92
2022/06/01 12:04:58;;;;;;;3.57;3.00;;;11.70;99.90;;;;;;6255349;23;20176;-93
2022/06/01 12:07:34;;;;;;;3.20;2.87;;;11.70;99.90;;;;;;6253150;23;20184;-92
2022/06/01 12:10:21;;;;;;;5.37;3.50;;;11.60;99.90;;;;;;6253344;23;20194;-92
2022/06/01 12:13:08;;;;;;;4.10;3.20;;;11.60;99.90;;;;;;6252453;23;20179;-93
2022/06/01 12:16:05;;;;;;;5.63;3.50;;;11.60;99.90;;;;;;6255242;23;20172;-92
2022/06/01 12:18:38;;;;;;;4.27;3.23;;;11.60;99.90;;;;;;6252668;23;20194;-93
2022/06/01 12:21:36;;;;;;;5.93;3.20;;;11.60;99.90;;;;;;6252714;23;20187;-92
2022/06/01 12:30:20;;;;;;;3.80;3.43;;;11.50;99.90;;;;;;6255483;23;20187;-91
2022/06/01 12:33:22;;;;;;;4.60;3.27;;;11.50;99.90;;;;;;6253915;23;20687;-92
2022/06/01 12:36:00;;;;;;;4.47;3.30;;;11.50;99.90;;;;;;6254707;23;20199;-92
2022/06/01 12:38:40;;;;;;;3.43;3.13;;;11.60;99.90;;;;;;6254238;23;20214;-92
2022/06/01 12:41:21;;;;;;;5.00;3.63;;;11.70;99.90;;;;;;6262023;23;20184;-92
2022/06/01 12:43:59;;;;;;;4.60;3.80;;;11.70;99.90;;;;;;6269657;22;20168;-92
2022/06/01 12:46:38;;;;;;;4.53;3.90;;;11.70;99.90;;;;;;6265346;23;20182;-92
2022/06/01 12:49:35;;;;;;;4.43;3.50;;;11.70;99.90;;;;;;6252065;23;20174;-92
2022/06/01 12:52:10;;;;;;;3.90;3.43;;;11.70;99.90;;;;;;6228799;23;20183;-91
2022/06/01 12:54:56;;;;;;;4.50;3.70;;;11.70;99.90;;;;;;6254687;22;20222;-93
2022/06/01 12:57:30;;;;;;;5.60;3.60;;;11.70;99.90;;;;;;6250826;23;20175;-92
2022/06/01 13:00:08;;;;;;;3.43;3.13;;;11.70;99.90;;;;;;6225463;23;20163;-92
2022/06/01 13:02:46;;;;;;;4.13;3.73;;;11.70;99.90;;;;;;6250633;23;20222;-93
2022/06/01 13:05:24;;;;;;;5.00;3.63;;;11.70;99.90;;;;;;6251523;23;20175;-92
2022/06/01 13:08:03;;;;;;;4.13;3.73;;;11.70;99.90;;;;;;6256980;23;20175;-92
2022/06/01 13:10:59;;;;;;;3.83;3.50;;;11.70;99.90;;;;;;6250958;22;20191;-91
2022/06/01 13:13:33;;;;;;;6.40;3.70;;;11.70;99.90;;;;;;6253376;23;20195;-92
2022/06/01 13:16:08;;;;;;;4.73;3.83;;;11.80;99.90;;;;;;6251000;23;20254;-92
2022/06/01 13:18:43;;;;;;;3.80;3.37;;;11.80;99.90;;;;;;6202011;23;20204;-92
2022/06/01 13:21:26;;;;;;;3.50;3.20;;;11.90;99.90;;;;;;6251159;23;20258;-92
2022/06/01 13:24:03;;;;;;;5.17;4.10;;;11.90;99.90;;;;;;6253153;23;20172;-91
2022/06/01 13:26:40;;;;;;;5.70;3.90;;;11.90;99.90;;;;;;6252228;23;20164;-92
2022/06/01 13:29:18;;;;;;;5.23;4.00;;;11.90;99.90;;;;;;6252936;23;20171;-92
2022/06/01 13:31:52;;;;;;;8.70;4.50;;;12.00;99.90;;;;;;6249809;23;20180;-93
2022/06/01 13:34:26;;;;;;;5.40;4.07;;;12.10;99.90;;;;;;6253155;23;20171;-92
2022/06/01 13:37:08;;;;;;;3.77;3.47;;;12.30;99.90;;;;;;6255747;23;20266;-92
2022/06/01 13:39:50;;;;;;;5.33;3.43;;;12.40;99.90;;;;;;6254607;23;20203;-92
2022/06/01 13:42:33;;;;;;;5.63;3.57;;;12.40;99.90;;;;;;6229592;23;20231;-92
2022/06/01 13:45:13;;;;;;;3.53;3.00;;;12.50;99.90;;;;;;6252986;23;20180;-92
2022/06/01 13:47:49;;;;;;;6.93;3.80;;;12.60;99.90;;;;;;6254570;23;20194;-92
2022/06/01 13:50:27;;;;;;;4.23;3.40;;;12.60;99.90;;;;;;6254937;23;20251;-91
2022/06/01 13:53:13;;;;;;;4.90;3.07;;;12.70;99.90;;;;;;6253922;23;20191;-92
2022/06/01 13:56:05;;;;;;;4.90;3.47;;;12.70;99.90;;;;;;6257295;22;20174;-92
2022/06/01 13:58:58;;;;;;;4.37;3.70;;;12.80;99.90;;;;;;6256390;23;20234;-92
2022/06/01 14:01:41;;;;;;;6.47;3.97;;;12.80;99.90;;;;;;6255288;23;20183;-92
2022/06/01 14:04:23;;;;;;;4.40;3.33;;;12.90;99.90;;;;;;6252523;23;20213;-92
2022/06/01 14:06:57;;;;;;;4.13;3.70;;;12.90;99.90;;;;;;6253035;23;20519;-92
2022/06/01 14:09:35;;;;;;;4.90;3.83;;;13.00;99.90;;;;;;6236849;23;20181;-92
2022/06/01 14:12:08;;;;;;;4.83;3.40;;;13.00;99.90;;;;;;6258713;23;20170;-93
2022/06/01 14:14:46;;;;;;;4.23;3.30;;;13.10;99.90;;;;;;6255976;23;20186;-92
2022/06/01 14:17:21;;;;;;;3.80;3.40;;;13.20;99.90;;;;;;6266215;23;20455;-90
2022/06/01 14:19:54;;;;;;;6.43;3.60;;;13.30;99.90;;;;;;6264805;23;20238;-92
2022/06/01 14:22:28;;;;;;;4.20;3.50;;;13.30;99.90;;;;;;6230126;23;20199;-92
2022/06/01 14:30:42;;;;;;;4.77;3.20;;;13.60;99.90;;;;;;6257181;23;20212;-92
2022/06/01 14:33:16;;;;;;;3.73;3.17;;;13.70;99.90;;;;;;6254271;23;20242;-92
2022/06/01 14:35:48;;;;;;;3.53;2.90;;;13.80;99.90;;;;;;6266318;23;20164;-93
2022/06/01 14:38:20;;;;;;;6.30;3.60;;;14.00;99.90;;;;;;6265841;22;20159;-94